Time,TemperatureF,DewpointF,PressureIn,WindDirection,WindDirectionDegrees,WindSpeedMPH,WindSpeedGustMPH,Humidity,HourlyPrecipIn,Conditions,Clouds,dailyrainin,SoftwareType,DateUTC
2013-06-19 00:01:00,61.9,59.2,17.50,NE,51,0.0,0.0,91,0.00,,SKC,0.01,VWS V14.01,2013-06-19 04:01:00,
2013-06-19 00:06:00,62.0,59.3,17.50,NE,51,0.0,0.0,91,0.00,,SKC,0.00,VWS V14.01,2013-06-19 04:06:00,
2013-06-19 00:11:00,62.0,59.3,17.50,NE,51,0.0,0.0,91,0.00,,SKC,0.00,VWS V14.01,2013-06-19 04:11:00,
2013-06-19 00:16:00,61.9,59.2,17.50,NE,51,0.0,0.0,91,0.00,,SKC,0.00,VWS V14.01,2013-06-19 04:16:00,
2013-06-19 00:21:00,62.0,59.7,17.50,NE,51,0.0,0.0,92,0.00,,SKC,0.00,VWS V14.01,2013-06-19 04:21:00,
2013-06-19 00:26:00,62.0,59.3,17.50,NE,51,0.0,0.0,91,0.00,,SKC,0.00,VWS V14.01,2013-06-19 04:26:00,
2013-06-19 00:31:00,62.0,59.3,17.50,NE,51,0.0,0.0,91,0.00,,SKC,0.00,VWS V14.01,2013-06-19 04:31:00,
2013-06-19 00:36:00,62.0,59.3,17.50,NE,51,0.0,0.0,91,0.00,,SKC,0.00,VWS V14.01,2013-06-19 04:36:00,
2013-06-19 00:41:00,62.0,59.3,17.50,NE,51,0.0,0.0,91,0.00,,SKC,0.00,VWS V14.01,2013-06-19 04:41:00,
2013-06-19 00:46:00,62.0,59.3,17.50,NE,51,0.0,0.0,91,0.00,,SKC,0.00,VWS V14.01,2013-06-19 04:46:00,
2013-06-19 00:51:00,61.9,59.2,17.50,NE,51,0.0,0.0,91,0.00,,SKC,0.00,VWS V14.01,2013-06-19 04:51:00,
2013-06-19 00:56:00,61.9,59.2,17.50,NE,51,0.0,0.0,91,0.00,,SKC,0.00,VWS V14.01,2013-06-19 04:56:00,
2013-06-19 01:01:00,61.9,59.2,17.50,NE,51,0.0,0.0,91,0.00,,SKC,0.00,VWS V14.01,2013-06-19 05:01:00,
2013-06-19 01:06:00,61.9,59.2,17.50,NE,51,0.0,0.0,91,0.00,,SKC,0.00,VWS V14.01,2013-06-19 05:06:00,
2013-06-19 01:11:00,61.9,59.2,17.50,NE,51,0.0,0.0,91,0.00,,SKC,0.00,VWS V14.01,2013-06-19 05:11:00,
2013-06-19 01:16:00,61.8,59.2,17.50,NE,51,0.0,0.0,91,0.00,,SKC,0.00,VWS V14.01,2013-06-19 05:16:00,
2013-06-19 01:21:00,61.8,59.2,17.50,NE,51,0.0,0.0,91,0.00,,SKC,0.00,VWS V14.01,2013-06-19 05:21:00,
2013-06-19 01:26:00,61.8,59.5,17.50,NE,51,0.0,0.0,92,0.00,,SKC,0.00,VWS V14.01,2013-06-19 05:26:00,
2013-06-19 01:31:00,61.8,59.5,17.50,NE,51,0.0,0.0,92,0.00,,SKC,0.00,VWS V14.01,2013-06-19 05:31:00,
2013-06-19 01:36:00,61.8,59.5,17.50,NE,51,0.0,0.0,92,0.00,,SKC,0.00,VWS V14.01,2013-06-19 05:36:00,
2013-06-19 01:41:00,61.8,59.5,17.50,NE,51,0.0,0.0,92,0.00,,SKC,0.00,VWS V14.01,2013-06-19 05:41:00,
2013-06-19 01:46:00,61.8,59.5,17.50,NE,51,0.0,0.0,92,0.00,,SKC,0.00,VWS V14.01,2013-06-19 05:46:00,
2013-06-19 01:51:00,61.7,59.4,17.50,NE,51,0.0,0.0,92,0.00,,SKC,0.00,VWS V14.01,2013-06-19 05:51:00,
2013-06-19 01:56:00,61.6,59.3,17.50,NE,51,0.0,0.0,92,0.00,,SKC,0.00,VWS V14.01,2013-06-19 05:56:00,
2013-06-19 02:01:00,61.5,59.2,17.50,NE,51,0.0,0.0,92,0.00,,SKC,0.00,VWS V14.01,2013-06-19 06:01:00,
2013-06-19 02:06:00,61.4,59.1,17.50,NE,51,0.0,0.0,92,0.00,,SKC,0.00,VWS V14.01,2013-06-19 06:06:00,
2013-06-19 02:11:00,61.2,58.9,17.50,NE,51,0.0,0.0,92,0.00,,SKC,0.00,VWS V14.01,2013-06-19 06:11:00,
2013-06-19 02:16:00,61.1,58.8,17.50,NE,51,0.0,0.0,92,0.00,,SKC,0.00,VWS V14.01,2013-06-19 06:16:00,
2013-06-19 02:20:00,60.9,58.6,17.50,NE,51,0.0,0.0,92,0.00,,SKC,0.00,VWS V14.01,2013-06-19 06:20:00,
2013-06-19 02:25:00,60.7,58.4,17.50,NE,51,0.0,0.0,92,0.00,,SKC,0.00,VWS V14.01,2013-06-19 06:25:00,
2013-06-19 02:30:00,60.5,58.2,17.50,NE,51,0.0,0.0,92,0.00,,SKC,0.00,VWS V14.01,2013-06-19 06:30:00,
2013-06-19 02:35:00,60.4,58.1,17.50,NE,51,0.0,0.0,92,0.00,,SKC,0.00,VWS V14.01,2013-06-19 06:35:00,
2013-06-19 02:40:00,60.3,58.0,17.50,NE,51,0.0,0.0,92,0.00,,SKC,0.00,VWS V14.01,2013-06-19 06:40:00,
2013-06-19 02:45:00,60.2,57.9,17.50,NE,51,0.0,0.0,92,0.00,,SKC,0.00,VWS V14.01,2013-06-19 06:45:00,
2013-06-19 02:50:00,60.0,57.7,17.50,NE,51,0.0,0.0,92,0.00,,SKC,0.00,VWS V14.01,2013-06-19 06:50:00,
2013-06-19 02:55:00,59.8,57.8,17.50,NE,51,0.0,0.0,93,0.00,,SKC,0.00,VWS V14.01,2013-06-19 06:55:00,
2013-06-19 03:00:00,59.6,57.6,17.50,NE,51,0.0,0.0,93,0.00,,SKC,0.00,VWS V14.01,2013-06-19 07:00:00,
2013-06-19 03:05:00,59.5,57.5,17.50,NE,51,0.0,0.0,93,0.00,,SKC,0.00,VWS V14.01,2013-06-19 07:05:00,
2013-06-19 03:10:00,59.3,57.3,17.50,NE,51,0.0,0.0,93,0.00,,SKC,0.00,VWS V14.01,2013-06-19 07:10:00,
2013-06-19 03:15:00,59.0,57.0,17.50,NE,51,0.0,0.0,93,0.00,,SKC,0.00,VWS V14.01,2013-06-19 07:15:00,
2013-06-19 03:20:00,59.0,57.0,17.50,NE,51,0.0,0.0,93,0.00,,SKC,0.00,VWS V14.01,2013-06-19 07:20:00,
2013-06-19 03:25:00,59.0,57.0,17.50,NE,51,0.0,0.0,93,0.00,,SKC,0.00,VWS V14.01,2013-06-19 07:25:00,
2013-06-19 03:30:00,59.0,57.0,17.50,NE,51,0.0,0.0,93,0.00,,SKC,0.00,VWS V14.01,2013-06-19 07:30:00,
2013-06-19 03:35:00,58.7,56.7,17.50,NE,51,0.0,0.0,93,0.00,,SKC,0.00,VWS V14.01,2013-06-19 07:35:00,
2013-06-19 03:40:00,58.5,56.5,17.50,NE,51,0.0,0.0,93,0.00,,SKC,0.00,VWS V14.01,2013-06-19 07:40:00,
2013-06-19 03:45:00,58.4,56.4,17.50,NE,51,0.0,0.0,93,0.00,,SKC,0.00,VWS V14.01,2013-06-19 07:45:00,
2013-06-19 03:50:00,58.3,56.3,17.50,NE,51,0.0,0.0,93,0.00,,SKC,0.00,VWS V14.01,2013-06-19 07:50:00,
2013-06-19 03:55:00,58.1,56.1,17.50,NE,51,0.0,0.0,93,0.00,,SKC,0.00,VWS V14.01,2013-06-19 07:55:00,
2013-06-19 04:00:00,58.0,56.0,17.50,NE,51,0.0,0.0,93,0.00,,SKC,0.00,VWS V14.01,2013-06-19 08:00:00,
2013-06-19 04:05:00,57.8,55.8,17.50,NE,51,0.0,0.0,93,0.00,,SKC,0.00,VWS V14.01,2013-06-19 08:05:00,
2013-06-19 04:10:00,57.7,55.7,17.50,NE,51,0.0,0.0,93,0.00,,SKC,0.00,VWS V14.01,2013-06-19 08:10:00,
2013-06-19 04:15:00,57.6,55.6,17.50,NE,51,0.0,0.0,93,0.00,,SKC,0.00,VWS V14.01,2013-06-19 08:15:00,
2013-06-19 04:20:00,57.5,55.8,17.50,NE,51,0.0,0.0,94,0.00,,SKC,0.00,VWS V14.01,2013-06-19 08:20:00,
2013-06-19 04:25:00,57.3,55.6,17.50,NE,51,0.0,0.0,94,0.00,,SKC,0.00,VWS V14.01,2013-06-19 08:25:00,
2013-06-19 04:30:00,57.2,55.5,17.50,NE,51,0.0,0.0,94,0.00,,SKC,0.00,VWS V14.01,2013-06-19 08:30:00,
2013-06-19 04:35:00,57.2,55.5,17.50,NE,51,0.0,0.0,94,0.00,,SKC,0.00,VWS V14.01,2013-06-19 08:35:00,
2013-06-19 04:40:00,57.1,55.4,17.50,NE,51,0.0,0.0,94,0.00,,SKC,0.00,VWS V14.01,2013-06-19 08:40:00,
2013-06-19 04:45:00,57.1,55.4,17.50,NE,51,0.0,0.0,94,0.00,,SKC,0.00,VWS V14.01,2013-06-19 08:45:00,
2013-06-19 04:50:00,57.0,55.3,17.50,NE,51,0.0,0.0,94,0.00,,SKC,0.00,VWS V14.01,2013-06-19 08:50:00,
2013-06-19 04:55:00,56.9,55.2,17.50,NE,51,0.0,0.0,94,0.00,,SKC,0.00,VWS V14.01,2013-06-19 08:55:00,
2013-06-19 05:00:00,56.8,55.1,17.50,NE,51,0.0,0.0,94,0.00,,SKC,0.00,VWS V14.01,2013-06-19 09:00:00,
2013-06-19 05:05:00,56.7,55.0,17.50,NE,51,0.0,0.0,94,0.00,,SKC,0.00,VWS V14.01,2013-06-19 09:05:00,
2013-06-19 05:10:00,56.6,54.9,17.50,NE,51,0.0,0.0,94,0.00,,SKC,0.00,VWS V14.01,2013-06-19 09:10:00,
2013-06-19 05:15:00,56.4,54.7,17.50,NE,51,0.0,0.0,94,0.00,,SKC,0.00,VWS V14.01,2013-06-19 09:15:00,
2013-06-19 05:20:00,56.4,54.7,17.50,NE,51,0.0,0.0,94,0.00,,SKC,0.00,VWS V14.01,2013-06-19 09:20:00,
2013-06-19 05:25:00,56.3,54.6,17.50,NE,51,0.0,0.0,94,0.00,,SKC,0.00,VWS V14.01,2013-06-19 09:25:00,
2013-06-19 05:30:00,56.3,54.6,17.50,NE,51,0.0,0.0,94,0.00,,SKC,0.00,VWS V14.01,2013-06-19 09:30:00,
2013-06-19 05:35:00,56.3,54.6,17.50,NE,51,0.0,0.0,94,0.00,,SKC,0.00,VWS V14.01,2013-06-19 09:35:00,
2013-06-19 05:40:00,56.3,54.6,31.23,NE,51,0.0,0.0,94,0.00,,SKC,0.00,VWS V14.01,2013-06-19 09:40:00,
2013-06-19 05:45:00,56.3,54.6,31.23,NE,51,0.0,0.0,94,0.00,,SKC,0.00,VWS V14.01,2013-06-19 09:45:00,
2013-06-19 05:50:00,56.4,54.7,31.23,NE,51,0.0,0.0,94,0.00,,SKC,0.00,VWS V14.01,2013-06-19 09:50:00,
2013-06-19 05:55:00,56.5,54.8,31.23,NE,51,0.0,0.0,94,0.00,,SKC,0.00,VWS V14.01,2013-06-19 09:55:00,
2013-06-19 06:00:00,56.6,54.9,32.11,NE,51,0.0,0.0,94,0.00,,SKC,0.00,VWS V14.01,2013-06-19 10:00:00,
2013-06-19 06:05:00,56.7,55.0,32.11,NE,51,0.0,0.0,94,0.00,,SKC,0.00,VWS V14.01,2013-06-19 10:05:00,
2013-06-19 06:10:00,56.8,55.4,32.11,NE,51,0.0,0.0,95,0.00,,SKC,0.00,VWS V14.01,2013-06-19 10:10:00,
2013-06-19 06:15:00,57.0,55.6,32.11,NE,51,0.0,0.0,95,0.00,,SKC,0.00,VWS V14.01,2013-06-19 10:15:00,
2013-06-19 06:20:00,57.1,55.7,32.11,NE,51,0.0,0.0,95,0.00,,SKC,0.00,VWS V14.01,2013-06-19 10:20:00,
2013-06-19 06:25:00,57.1,55.7,32.11,NE,51,0.0,0.0,95,0.00,,SKC,0.00,VWS V14.01,2013-06-19 10:25:00,
2013-06-19 06:30:00,57.3,55.9,32.11,NE,51,0.0,0.0,95,0.00,,SKC,0.00,VWS V14.01,2013-06-19 10:30:00,
2013-06-19 06:35:00,57.3,55.9,32.11,NE,51,0.0,0.0,95,0.00,,SKC,0.00,VWS V14.01,2013-06-19 10:35:00,
2013-06-19 06:40:00,57.3,55.9,32.11,NE,51,0.0,0.0,95,0.00,,SKC,0.00,VWS V14.01,2013-06-19 10:40:00,
2013-06-19 06:45:00,57.3,55.9,32.11,NE,51,0.0,0.0,95,0.00,,SKC,0.00,VWS V14.01,2013-06-19 10:45:00,
2013-06-19 06:50:00,57.3,55.9,32.11,NE,51,0.0,1.0,95,0.00,,SKC,0.00,VWS V14.01,2013-06-19 10:50:00,
2013-06-19 06:55:00,57.4,56.0,32.11,NE,51,0.0,0.0,95,0.00,,SKC,0.00,VWS V14.01,2013-06-19 10:55:00,
2013-06-19 07:00:00,57.4,56.0,32.11,NE,51,0.0,0.0,95,0.00,,SKC,0.00,VWS V14.01,2013-06-19 11:00:00,
2013-06-19 07:05:00,57.5,56.1,32.11,NE,51,0.0,0.0,95,0.00,,SKC,0.00,VWS V14.01,2013-06-19 11:05:00,
2013-06-19 07:10:00,57.3,55.9,32.11,NE,51,0.0,1.0,95,0.00,,SKC,0.00,VWS V14.01,2013-06-19 11:10:00,
2013-06-19 07:15:00,57.3,55.9,32.11,NE,51,0.0,0.0,95,0.00,,SKC,0.00,VWS V14.01,2013-06-19 11:15:00,
2013-06-19 07:20:00,57.4,56.0,32.11,NE,51,0.0,0.0,95,0.00,,SKC,0.00,VWS V14.01,2013-06-19 11:20:00,
2013-06-19 07:25:00,57.5,56.1,32.11,NE,51,0.0,0.0,95,0.00,,SKC,0.00,VWS V14.01,2013-06-19 11:25:00,
2013-06-19 07:30:00,57.6,56.2,32.11,NE,51,1.0,1.0,95,0.00,,SKC,0.00,VWS V14.01,2013-06-19 11:30:00,
2013-06-19 07:35:00,57.6,56.2,32.11,NE,51,0.0,0.0,95,0.00,,SKC,0.00,VWS V14.01,2013-06-19 11:35:00,
2013-06-19 07:40:00,57.7,56.3,32.11,NE,51,0.0,0.0,95,0.00,,SKC,0.00,VWS V14.01,2013-06-19 11:40:00,
2013-06-19 07:45:00,57.8,56.4,32.11,NE,51,2.0,2.0,95,0.00,,SKC,0.00,VWS V14.01,2013-06-19 11:45:00,
2013-06-19 07:50:00,57.8,56.4,32.11,NE,51,0.0,0.0,95,0.00,,SKC,0.00,VWS V14.01,2013-06-19 11:50:00,
2013-06-19 07:55:00,58.0,56.6,32.11,NE,51,0.0,0.0,95,0.00,,SKC,0.00,VWS V14.01,2013-06-19 11:55:00,
2013-06-19 08:00:00,58.1,56.7,32.11,NE,51,0.0,0.0,95,0.00,,SKC,0.00,VWS V14.01,2013-06-19 12:00:00,
2013-06-19 08:05:00,58.2,56.8,32.11,NNE,30,0.0,0.0,95,0.00,,SKC,0.00,VWS V14.01,2013-06-19 12:05:00,
2013-06-19 08:10:00,58.3,56.9,32.11,NNE,30,1.0,2.0,95,0.00,,SKC,0.00,VWS V14.01,2013-06-19 12:10:00,
2013-06-19 08:15:00,58.3,56.9,32.11,NNE,30,0.0,0.0,95,0.00,,SKC,0.00,VWS V14.01,2013-06-19 12:15:00,
2013-06-19 08:20:00,58.4,57.0,32.11,NNE,29,0.0,0.0,95,0.00,,SKC,0.00,VWS V14.01,2013-06-19 12:20:00,
2013-06-19 08:24:00,58.7,57.3,32.11,NNE,29,0.0,0.0,95,0.00,,SKC,0.00,VWS V14.01,2013-06-19 12:24:00,
2013-06-19 08:29:00,59.0,57.6,32.11,NNE,30,0.0,1.0,95,0.00,,SKC,0.00,VWS V14.01,2013-06-19 12:29:00,
2013-06-19 08:34:00,59.0,57.6,32.11,NNE,30,0.0,1.0,95,0.00,,SKC,0.00,VWS V14.01,2013-06-19 12:34:00,
2013-06-19 08:39:00,59.0,57.6,32.11,NNE,30,3.0,3.0,95,0.00,,SKC,0.00,VWS V14.01,2013-06-19 12:39:00,
2013-06-19 08:44:00,59.0,57.6,32.11,North,5,0.0,0.0,95,0.00,,SKC,0.00,VWS V14.01,2013-06-19 12:44:00,
2013-06-19 08:49:00,59.1,57.7,32.11,North,5,0.0,0.0,95,0.00,,SKC,0.00,VWS V14.01,2013-06-19 12:49:00,
2013-06-19 08:54:00,59.6,58.2,32.11,North,5,0.0,0.0,95,0.00,,SKC,0.00,VWS V14.01,2013-06-19 12:54:00,
2013-06-19 08:59:00,60.0,58.3,32.11,North,360,0.0,1.0,94,0.00,,SKC,0.00,VWS V14.01,2013-06-19 12:59:00,
2013-06-19 09:04:00,60.5,58.5,32.11,North,360,0.0,0.0,93,0.00,,SKC,0.00,VWS V14.01,2013-06-19 13:04:00,
2013-06-19 09:09:00,60.9,58.6,32.11,North,5,2.0,2.0,92,0.00,,SKC,0.00,VWS V14.01,2013-06-19 13:09:00,
2013-06-19 09:14:00,61.4,58.5,32.11,North,360,1.0,3.0,90,0.00,,SKC,0.00,VWS V14.01,2013-06-19 13:14:00,
2013-06-19 09:19:00,61.8,58.5,32.11,North,5,0.0,0.0,89,0.00,,SKC,0.00,VWS V14.01,2013-06-19 13:19:00,
2013-06-19 09:24:00,62.2,58.6,32.11,North,5,1.0,1.0,88,0.00,,SKC,0.00,VWS V14.01,2013-06-19 13:24:00,
2013-06-19 09:29:00,63.0,59.4,32.11,North,5,0.0,2.0,88,0.00,,SKC,0.00,VWS V14.01,2013-06-19 13:29:00,
2013-06-19 09:34:00,63.5,58.9,32.11,North,5,0.0,2.0,85,0.00,,SKC,0.00,VWS V14.01,2013-06-19 13:34:00,
2013-06-19 09:39:00,63.9,59.6,32.11,North,360,1.0,2.0,86,0.00,,SKC,0.00,VWS V14.01,2013-06-19 13:39:00,
2013-06-19 09:44:00,64.5,59.9,32.11,North,360,0.0,0.0,85,0.00,,SKC,0.00,VWS V14.01,2013-06-19 13:44:00,
2013-06-19 09:49:00,65.2,60.2,32.11,North,5,3.0,3.0,84,0.00,,SKC,0.00,VWS V14.01,2013-06-19 13:49:00,
2013-06-19 09:54:00,65.7,60.4,32.11,North,5,1.0,3.0,83,0.00,,SKC,0.00,VWS V14.01,2013-06-19 13:54:00,
2013-06-19 09:59:00,66.2,60.5,32.11,North,5,0.0,1.0,82,0.00,,SKC,0.00,VWS V14.01,2013-06-19 13:59:00,
2013-06-19 10:04:00,66.9,60.5,32.11,North,5,1.0,1.0,80,0.00,,SKC,0.00,VWS V14.01,2013-06-19 14:04:00,
2013-06-19 10:09:00,66.8,60.1,32.11,North,360,0.0,3.0,79,0.00,,SKC,0.00,VWS V14.01,2013-06-19 14:09:00,
2013-06-19 10:14:00,67.2,60.5,32.11,North,5,0.0,1.0,79,0.00,,SKC,0.00,VWS V14.01,2013-06-19 14:14:00,
2013-06-19 10:19:00,67.4,60.0,32.11,ESE,107,0.0,0.0,77,0.00,,SKC,0.00,VWS V14.01,2013-06-19 14:19:00,
2013-06-19 10:24:00,67.8,60.0,32.11,ESE,109,0.0,0.0,76,0.00,,SKC,0.00,VWS V14.01,2013-06-19 14:24:00,
2013-06-19 10:29:00,68.2,60.7,32.11,ESE,109,0.0,1.0,77,0.00,,SKC,0.00,VWS V14.01,2013-06-19 14:29:00,
2013-06-19 10:34:00,68.5,60.6,32.11,ESE,110,0.0,0.0,76,0.00,,SKC,0.00,VWS V14.01,2013-06-19 14:34:00,
2013-06-19 10:39:00,68.7,60.5,32.11,ESE,110,0.0,1.0,75,0.00,,SKC,0.00,VWS V14.01,2013-06-19 14:39:00,
2013-06-19 10:44:00,69.0,60.8,32.11,North,355,0.0,0.0,75,0.00,,SKC,0.00,VWS V14.01,2013-06-19 14:44:00,
2013-06-19 10:49:00,69.7,61.0,32.11,North,355,0.0,0.0,74,0.00,,SKC,0.00,VWS V14.01,2013-06-19 14:49:00,
2013-06-19 10:54:00,70.2,61.5,32.11,North,355,0.0,0.0,74,0.00,,SKC,0.00,VWS V14.01,2013-06-19 14:54:00,
2013-06-19 10:59:00,70.6,60.8,32.11,North,355,0.0,0.0,71,0.00,,SKC,0.00,VWS V14.01,2013-06-19 14:59:00,
2013-06-19 11:04:00,70.8,60.5,32.11,ESE,107,0.0,0.0,70,0.00,,SKC,0.00,VWS V14.01,2013-06-19 15:04:00,
2013-06-19 11:09:00,70.4,60.2,32.11,ESE,106,0.0,0.0,70,0.00,,SKC,0.00,VWS V14.01,2013-06-19 15:09:00,
2013-06-19 11:14:00,70.6,61.1,32.11,ESE,107,0.0,0.0,72,0.00,,SKC,0.00,VWS V14.01,2013-06-19 15:14:00,
2013-06-19 11:19:00,71.2,60.9,32.11,East,94,0.0,0.0,70,0.00,,SKC,0.00,VWS V14.01,2013-06-19 15:19:00,
2013-06-19 11:24:00,71.7,61.0,32.11,ESE,114,0.0,1.0,69,0.00,,SKC,0.00,VWS V14.01,2013-06-19 15:24:00,
2013-06-19 11:29:00,71.8,61.1,32.11,ESE,116,0.0,0.0,69,0.00,,SKC,0.00,VWS V14.01,2013-06-19 15:29:00,
2013-06-19 11:34:00,71.7,61.4,32.11,ESE,119,0.0,0.0,70,0.00,,SKC,0.00,VWS V14.01,2013-06-19 15:34:00,
2013-06-19 11:39:00,71.9,62.4,32.11,ESE,119,0.0,0.0,72,0.00,,SKC,0.00,VWS V14.01,2013-06-19 15:39:00,
2013-06-19 11:44:00,71.9,61.6,32.11,ESE,118,0.0,0.0,70,0.00,,SKC,0.00,VWS V14.01,2013-06-19 15:44:00,
2013-06-19 11:49:00,72.6,62.3,32.11,NE,56,3.0,3.0,70,0.00,,SKC,0.00,VWS V14.01,2013-06-19 15:49:00,
2013-06-19 11:54:00,73.2,62.4,32.11,NE,55,0.0,0.0,69,0.00,,SKC,0.00,VWS V14.01,2013-06-19 15:54:00,
2013-06-19 11:59:00,73.9,62.3,32.11,NE,49,3.0,3.0,67,0.00,,SKC,0.00,VWS V14.01,2013-06-19 15:59:00,
2013-06-19 12:04:00,73.5,61.0,32.11,NE,36,1.0,4.0,65,0.00,,SKC,0.00,VWS V14.01,2013-06-19 16:04:00,
2013-06-19 12:09:00,73.4,61.4,32.11,NE,36,0.0,0.0,66,0.00,,SKC,0.00,VWS V14.01,2013-06-19 16:09:00,
2013-06-19 12:14:00,73.6,61.1,32.11,NE,36,0.0,0.0,65,0.00,,SKC,0.00,VWS V14.01,2013-06-19 16:14:00,
2013-06-19 12:19:00,73.8,60.9,32.11,NE,36,1.0,1.0,64,0.00,,SKC,0.00,VWS V14.01,2013-06-19 16:19:00,
2013-06-19 12:24:00,73.7,61.7,32.11,NE,36,2.0,2.0,66,0.00,,SKC,0.00,VWS V14.01,2013-06-19 16:24:00,
2013-06-19 12:29:00,73.5,60.2,32.11,NE,36,0.0,0.0,63,0.00,,SKC,0.00,VWS V14.01,2013-06-19 16:29:00,
2013-06-19 12:34:00,73.8,61.3,32.11,NE,36,0.0,0.0,65,0.00,,SKC,0.00,VWS V14.01,2013-06-19 16:34:00,
2013-06-19 12:39:00,73.6,61.1,32.11,East,89,2.0,2.0,65,0.00,,SKC,0.00,VWS V14.01,2013-06-19 16:39:00,
2013-06-19 12:44:00,73.5,60.2,32.11,East,89,1.0,1.0,63,0.00,,SKC,0.00,VWS V14.01,2013-06-19 16:44:00,
2013-06-19 12:49:00,73.4,60.0,32.11,East,88,0.0,0.0,63,0.00,,SKC,0.00,VWS V14.01,2013-06-19 16:49:00,
2013-06-19 12:54:00,73.4,60.0,32.11,ESE,114,0.0,1.0,63,0.00,,SKC,0.00,VWS V14.01,2013-06-19 16:54:00,
2013-06-19 12:59:00,73.4,60.5,32.11,ESE,115,1.0,1.0,64,0.00,,SKC,0.00,VWS V14.01,2013-06-19 16:59:00,
2013-06-19 13:04:00,73.5,59.2,32.11,ESE,115,0.0,0.0,61,0.00,,SKC,0.00,VWS V14.01,2013-06-19 17:04:00,
2013-06-19 13:09:00,73.9,61.0,32.11,ESE,115,0.0,0.0,64,0.00,,SKC,0.00,VWS V14.01,2013-06-19 17:09:00,
2013-06-19 13:14:00,74.6,61.6,32.11,ESE,111,1.0,1.0,64,0.00,,SKC,0.00,VWS V14.01,2013-06-19 17:14:00,
2013-06-19 13:19:00,74.9,61.0,32.11,ENE,65,2.0,2.0,62,0.00,,SKC,0.00,VWS V14.01,2013-06-19 17:19:00,
2013-06-19 13:24:00,74.8,61.8,32.11,NNE,26,0.0,2.0,64,0.00,,SKC,0.00,VWS V14.01,2013-06-19 17:24:00,
2013-06-19 13:29:00,74.2,59.9,32.11,ESE,115,0.0,2.0,61,0.00,,SKC,0.00,VWS V14.01,2013-06-19 17:29:00,
2013-06-19 13:34:00,73.7,61.2,32.11,East,90,0.0,1.0,65,0.00,,SKC,0.00,VWS V14.01,2013-06-19 17:34:00,
2013-06-19 13:39:00,74.2,63.0,32.11,East,89,1.0,3.0,68,0.00,,SKC,0.00,VWS V14.01,2013-06-19 17:39:00,
2013-06-19 13:44:00,74.4,61.9,32.11,ESE,109,0.0,0.0,65,0.00,,SKC,0.00,VWS V14.01,2013-06-19 17:44:00,
2013-06-19 13:49:00,75.1,62.5,32.11,ESE,114,2.0,3.0,65,0.00,,SKC,0.00,VWS V14.01,2013-06-19 17:49:00,
2013-06-19 13:54:00,75.3,61.4,32.11,ESE,114,1.0,3.0,62,0.00,,SKC,0.00,VWS V14.01,2013-06-19 17:54:00,
2013-06-19 13:59:00,75.6,61.7,32.11,SE,125,0.0,3.0,62,0.00,,SKC,0.00,VWS V14.01,2013-06-19 17:59:00,
2013-06-19 14:04:00,76.0,62.0,32.11,NNE,14,1.0,4.0,62,0.00,,SKC,0.00,VWS V14.01,2013-06-19 18:04:00,
2013-06-19 14:09:00,76.5,60.2,32.11,North,355,0.0,4.0,57,0.00,,SKC,0.00,VWS V14.01,2013-06-19 18:09:00,
2013-06-19 14:14:00,76.7,61.3,32.11,North,10,1.0,2.0,59,0.00,,SKC,0.00,VWS V14.01,2013-06-19 18:14:00,
2013-06-19 14:19:00,76.7,60.8,32.11,NNW,344,0.0,4.0,58,0.00,,SKC,0.00,VWS V14.01,2013-06-19 18:19:00,
2013-06-19 14:24:00,77.1,62.2,32.11,NNW,331,1.0,3.0,60,0.00,,SKC,0.00,VWS V14.01,2013-06-19 18:24:00,
2013-06-19 14:29:00,77.8,62.3,32.11,NNW,345,0.0,1.0,59,0.00,,SKC,0.00,VWS V14.01,2013-06-19 18:29:00,
2013-06-19 14:34:00,78.1,63.1,32.11,NNW,348,0.0,1.0,60,0.00,,SKC,0.00,VWS V14.01,2013-06-19 18:34:00,
2013-06-19 14:39:00,77.8,63.8,32.11,North,349,2.0,3.0,62,0.00,,SKC,0.00,VWS V14.01,2013-06-19 18:39:00,
2013-06-19 14:44:00,77.0,61.1,32.11,North,349,1.0,1.0,58,0.00,,SKC,0.00,VWS V14.01,2013-06-19 18:44:00,
2013-06-19 14:49:00,77.0,62.1,32.11,North,349,0.0,0.0,60,0.00,,SKC,0.00,VWS V14.01,2013-06-19 18:49:00,
2013-06-19 14:54:00,77.5,61.1,32.11,North,349,1.0,3.0,57,0.00,,SKC,0.00,VWS V14.01,2013-06-19 18:54:00,
2013-06-19 14:59:00,77.9,61.5,32.11,North,355,0.0,1.0,57,0.00,,SKC,0.00,VWS V14.01,2013-06-19 18:59:00,
2013-06-19 15:04:00,78.2,61.7,32.11,North,355,0.0,2.0,57,0.00,,SKC,0.00,VWS V14.01,2013-06-19 19:04:00,
2013-06-19 15:09:00,78.2,60.7,32.11,North,355,1.0,1.0,55,0.00,,SKC,0.00,VWS V14.01,2013-06-19 19:09:00,
2013-06-19 15:13:00,78.7,61.2,32.11,NW,323,0.0,0.0,55,0.00,,SKC,0.00,VWS V14.01,2013-06-19 19:13:00,
2013-06-19 15:18:00,78.7,60.2,32.11,NW,323,1.0,2.0,53,0.00,,SKC,0.00,VWS V14.01,2013-06-19 19:18:00,
2013-06-19 15:23:00,78.4,60.4,32.11,NW,323,1.0,1.0,54,0.00,,SKC,0.00,VWS V14.01,2013-06-19 19:23:00,
2013-06-19 15:28:00,78.7,61.7,32.11,ESE,115,2.0,5.0,56,0.00,,SKC,0.00,VWS V14.01,2013-06-19 19:28:00,
2013-06-19 15:33:00,78.7,61.2,32.11,SE,135,3.0,4.0,55,0.00,,SKC,0.00,VWS V14.01,2013-06-19 19:33:00,
2013-06-19 15:38:00,77.7,61.3,32.11,ESE,114,0.0,1.0,57,0.00,,SKC,0.00,VWS V14.01,2013-06-19 19:38:00,
2013-06-19 15:43:00,76.9,60.5,32.11,ESE,114,0.0,2.0,57,0.00,,SKC,0.00,VWS V14.01,2013-06-19 19:43:00,
2013-06-19 15:48:00,76.6,60.7,32.11,ESE,114,0.0,0.0,58,0.00,,SKC,0.00,VWS V14.01,2013-06-19 19:48:00,
2013-06-19 15:53:00,77.0,60.6,32.11,ESE,115,1.0,3.0,57,0.00,,SKC,0.00,VWS V14.01,2013-06-19 19:53:00,
2013-06-19 15:58:00,77.0,60.1,32.11,ESE,115,0.0,0.0,56,0.00,,SKC,0.00,VWS V14.01,2013-06-19 19:58:00,
2013-06-19 16:03:00,77.2,59.8,32.11,ESE,114,0.0,1.0,55,0.00,,SKC,0.00,VWS V14.01,2013-06-19 20:03:00,
2013-06-19 16:08:00,77.2,59.3,32.11,ESE,114,0.0,1.0,54,0.00,,SKC,0.00,VWS V14.01,2013-06-19 20:08:00,
2013-06-19 16:13:00,77.5,59.6,32.11,ESE,114,1.0,1.0,54,0.00,,SKC,0.00,VWS V14.01,2013-06-19 20:13:00,
2013-06-19 16:18:00,77.4,60.5,32.11,ESE,115,0.0,0.0,56,0.00,,SKC,0.00,VWS V14.01,2013-06-19 20:18:00,
2013-06-19 16:23:00,77.3,59.4,32.11,ESE,115,2.0,2.0,54,0.00,,SKC,0.00,VWS V14.01,2013-06-19 20:23:00,
2013-06-19 16:28:00,77.1,58.1,32.11,SE,137,0.0,1.0,52,0.00,,SKC,0.00,VWS V14.01,2013-06-19 20:28:00,
2013-06-19 16:33:00,77.7,58.2,32.11,SE,136,0.0,0.0,51,0.00,,SKC,0.00,VWS V14.01,2013-06-19 20:33:00,
2013-06-19 16:38:00,78.2,59.2,32.11,SE,137,0.0,0.0,52,0.00,,SKC,0.00,VWS V14.01,2013-06-19 20:38:00,
2013-06-19 16:43:00,78.0,60.5,32.11,SE,137,0.0,0.0,55,0.00,,SKC,0.00,VWS V14.01,2013-06-19 20:43:00,
2013-06-19 16:48:00,78.4,61.9,32.11,SE,137,0.0,0.0,57,0.00,,SKC,0.00,VWS V14.01,2013-06-19 20:48:00,
2013-06-19 16:53:00,78.7,61.2,32.11,SE,137,0.0,0.0,55,0.00,,SKC,0.00,VWS V14.01,2013-06-19 20:53:00,
2013-06-19 16:58:00,79.5,59.8,32.11,SE,134,2.0,2.0,51,0.00,,SKC,0.00,VWS V14.01,2013-06-19 20:58:00,
2013-06-19 17:03:00,79.2,60.1,32.11,ESE,110,1.0,1.0,52,0.00,,SKC,0.00,VWS V14.01,2013-06-19 21:03:00,
2013-06-19 17:08:00,78.3,59.8,32.11,ESE,110,0.0,1.0,53,0.00,,SKC,0.00,VWS V14.01,2013-06-19 21:08:00,
2013-06-19 17:13:00,77.9,60.5,32.11,ESE,110,0.0,0.0,55,0.00,,SKC,0.00,VWS V14.01,2013-06-19 21:13:00,
2013-06-19 17:18:00,77.4,60.5,32.11,ESE,110,0.0,0.0,56,0.00,,SKC,0.00,VWS V14.01,2013-06-19 21:18:00,
2013-06-19 17:23:00,77.1,61.2,32.11,ESE,110,0.0,0.0,58,0.00,,SKC,0.00,VWS V14.01,2013-06-19 21:23:00,
2013-06-19 17:28:00,76.7,61.3,32.11,ESE,110,0.0,0.0,59,0.00,,SKC,0.00,VWS V14.01,2013-06-19 21:28:00,
2013-06-19 17:33:00,76.1,61.7,32.11,ESE,110,0.0,0.0,61,0.00,,SKC,0.00,VWS V14.01,2013-06-19 21:33:00,
2013-06-19 17:38:00,75.7,60.8,32.11,ESE,110,0.0,0.0,60,0.00,,SKC,0.00,VWS V14.01,2013-06-19 21:38:00,
2013-06-19 17:43:00,75.6,62.6,32.11,ESE,110,0.0,0.0,64,0.00,,SKC,0.00,VWS V14.01,2013-06-19 21:43:00,
2013-06-19 17:48:00,75.9,62.4,32.11,ESE,110,0.0,0.0,63,0.00,,SKC,0.00,VWS V14.01,2013-06-19 21:48:00,
2013-06-19 17:53:00,76.2,63.1,32.11,ESE,110,0.0,0.0,64,0.00,,SKC,0.00,VWS V14.01,2013-06-19 21:53:00,
2013-06-19 17:58:00,76.2,63.1,32.11,ESE,110,1.0,1.0,64,0.00,,SKC,0.00,VWS V14.01,2013-06-19 21:58:00,
2013-06-19 18:03:00,76.4,63.3,32.11,ESE,110,0.0,0.0,64,0.00,,SKC,0.00,VWS V14.01,2013-06-19 22:03:00,
2013-06-19 18:08:00,76.6,60.7,32.11,ESE,110,0.0,0.0,58,0.00,,SKC,0.00,VWS V14.01,2013-06-19 22:08:00,
2013-06-19 18:13:00,77.0,60.6,32.11,ESE,110,0.0,0.0,57,0.00,,SKC,0.00,VWS V14.01,2013-06-19 22:13:00,
2013-06-19 18:18:00,77.2,59.3,32.11,ESE,110,0.0,0.0,54,0.00,,SKC,0.00,VWS V14.01,2013-06-19 22:18:00,
2013-06-19 18:23:00,77.4,60.5,32.11,ESE,110,1.0,2.0,56,0.00,,SKC,0.00,VWS V14.01,2013-06-19 22:23:00,
2013-06-19 18:28:00,77.6,59.1,32.11,ESE,110,0.0,0.0,53,0.00,,SKC,0.00,VWS V14.01,2013-06-19 22:28:00,
2013-06-19 18:33:00,78.2,60.7,32.11,ESE,110,0.0,1.0,55,0.00,,SKC,0.00,VWS V14.01,2013-06-19 22:33:00,
2013-06-19 18:38:00,77.6,58.6,32.11,ESE,110,0.0,1.0,52,0.00,,SKC,0.00,VWS V14.01,2013-06-19 22:38:00,
2013-06-19 18:43:00,77.1,59.2,32.11,ESE,110,0.0,0.0,54,0.00,,SKC,0.00,VWS V14.01,2013-06-19 22:43:00,
2013-06-19 18:48:00,77.2,60.8,32.11,ESE,110,0.0,0.0,57,0.00,,SKC,0.00,VWS V14.01,2013-06-19 22:48:00,
2013-06-19 18:53:00,77.5,61.6,32.11,ESE,110,0.0,0.0,58,0.00,,SKC,0.00,VWS V14.01,2013-06-19 22:53:00,
2013-06-19 18:58:00,77.3,59.9,32.11,ESE,110,0.0,0.0,55,0.00,,SKC,0.00,VWS V14.01,2013-06-19 22:58:00,
2013-06-19 19:03:00,77.2,59.3,32.11,ESE,110,1.0,2.0,54,0.00,,SKC,0.00,VWS V14.01,2013-06-19 23:03:00,
2013-06-19 19:08:00,77.1,59.2,32.11,ESE,110,0.0,0.0,54,0.00,,SKC,0.00,VWS V14.01,2013-06-19 23:08:00,
2013-06-19 19:13:00,76.7,58.8,32.11,ESE,110,0.0,0.0,54,0.00,,SKC,0.00,VWS V14.01,2013-06-19 23:13:00,
2013-06-19 19:18:00,76.2,61.8,32.11,ESE,110,0.0,0.0,61,0.00,,SKC,0.00,VWS V14.01,2013-06-19 23:18:00,
2013-06-19 19:23:00,75.5,61.6,32.11,ESE,110,1.0,3.0,62,0.00,,SKC,0.00,VWS V14.01,2013-06-19 23:23:00,
2013-06-19 19:28:00,74.7,60.8,32.11,ESE,110,0.0,0.0,62,0.00,,SKC,0.00,VWS V14.01,2013-06-19 23:28:00,
2013-06-19 19:33:00,74.3,61.3,32.11,ESE,110,0.0,0.0,64,0.00,,SKC,0.00,VWS V14.01,2013-06-19 23:33:00,
2013-06-19 19:38:00,74.2,61.2,32.11,ESE,110,0.0,0.0,64,0.00,,SKC,0.00,VWS V14.01,2013-06-19 23:38:00,
2013-06-19 19:43:00,73.9,61.0,32.11,ESE,110,0.0,0.0,64,0.00,,SKC,0.00,VWS V14.01,2013-06-19 23:43:00,
2013-06-19 19:48:00,73.2,60.3,32.11,ESE,110,0.0,1.0,64,0.00,,SKC,0.00,VWS V14.01,2013-06-19 23:48:00,
2013-06-19 19:53:00,72.6,60.6,32.11,ESE,110,0.0,0.0,66,0.00,,SKC,0.00,VWS V14.01,2013-06-19 23:53:00,
2013-06-19 19:58:00,72.2,61.1,32.11,ESE,110,0.0,0.0,68,0.00,,SKC,0.00,VWS V14.01,2013-06-19 23:58:00,
2013-06-19 20:03:00,71.9,60.8,32.11,ESE,110,0.0,0.0,68,0.00,,SKC,0.00,VWS V14.01,2013-06-20 00:03:00,
2013-06-19 20:08:00,71.5,60.4,32.11,ESE,110,0.0,0.0,68,0.00,,SKC,0.00,VWS V14.01,2013-06-20 00:08:00,
2013-06-19 20:13:00,71.1,60.8,32.11,ESE,110,0.0,0.0,70,0.00,,SKC,0.00,VWS V14.01,2013-06-20 00:13:00,
2013-06-19 20:18:00,70.6,60.3,32.11,ESE,110,0.0,0.0,70,0.00,,SKC,0.00,VWS V14.01,2013-06-20 00:18:00,
2013-06-19 20:23:00,70.2,60.4,32.11,ESE,110,0.0,0.0,71,0.00,,SKC,0.00,VWS V14.01,2013-06-20 00:23:00,
2013-06-19 20:28:00,69.8,60.8,32.11,ESE,110,0.0,0.0,73,0.00,,SKC,0.00,VWS V14.01,2013-06-20 00:28:00,
2013-06-19 20:33:00,69.3,60.3,32.11,ESE,110,0.0,0.0,73,0.00,,SKC,0.00,VWS V14.01,2013-06-20 00:33:00,
2013-06-19 20:38:00,69.0,60.4,32.11,ESE,110,0.0,0.0,74,0.00,,SKC,0.00,VWS V14.01,2013-06-20 00:38:00,
2013-06-19 20:43:00,68.6,60.0,32.11,ESE,110,0.0,0.0,74,0.00,,SKC,0.00,VWS V14.01,2013-06-20 00:43:00,
2013-06-19 20:48:00,68.3,60.1,32.11,ESE,110,0.0,0.0,75,0.00,,SKC,0.00,VWS V14.01,2013-06-20 00:48:00,
2013-06-19 20:52:00,68.0,59.8,32.11,ESE,110,0.0,0.0,75,0.00,,SKC,0.00,VWS V14.01,2013-06-20 00:52:00,
2013-06-19 20:57:00,67.8,60.0,32.11,ESE,110,0.0,0.0,76,0.00,,SKC,0.00,VWS V14.01,2013-06-20 00:57:00,
2013-06-19 21:02:00,67.5,60.0,32.11,ESE,110,0.0,0.0,77,0.00,,SKC,0.00,VWS V14.01,2013-06-20 01:02:00,
2013-06-19 21:07:00,67.3,60.2,32.11,ESE,110,0.0,0.0,78,0.00,,SKC,0.00,VWS V14.01,2013-06-20 01:07:00,
2013-06-19 21:12:00,67.0,59.6,32.11,ESE,110,0.0,0.0,77,0.00,,SKC,0.00,VWS V14.01,2013-06-20 01:12:00,
2013-06-19 21:17:00,66.7,59.6,32.11,ESE,110,0.0,0.0,78,0.00,,SKC,0.00,VWS V14.01,2013-06-20 01:17:00,
2013-06-19 21:22:00,66.5,59.4,32.11,ESE,110,0.0,0.0,78,0.00,,SKC,0.00,VWS V14.01,2013-06-20 01:22:00,
2013-06-19 21:27:00,66.3,59.2,32.11,ESE,110,0.0,0.0,78,0.00,,SKC,0.00,VWS V14.01,2013-06-20 01:27:00,
2013-06-19 21:32:00,66.0,59.7,32.11,ESE,110,0.0,0.0,80,0.00,,SKC,0.00,VWS V14.01,2013-06-20 01:32:00,
2013-06-19 21:37:00,65.6,59.3,32.11,ESE,110,0.0,0.0,80,0.00,,SKC,0.00,VWS V14.01,2013-06-20 01:37:00,
2013-06-19 21:42:00,65.4,59.4,32.11,ESE,110,0.0,0.0,81,0.00,,SKC,0.00,VWS V14.01,2013-06-20 01:42:00,
2013-06-19 21:47:00,65.1,59.1,32.11,ESE,110,0.0,0.0,81,0.00,,SKC,0.00,VWS V14.01,2013-06-20 01:47:00,
2013-06-19 21:52:00,64.8,59.2,32.11,ESE,110,0.0,0.0,82,0.00,,SKC,0.00,VWS V14.01,2013-06-20 01:52:00,
2013-06-19 21:57:00,64.4,58.8,32.11,ESE,110,0.0,0.0,82,0.00,,SKC,0.00,VWS V14.01,2013-06-20 01:57:00,
2013-06-19 22:02:00,64.1,58.8,32.11,ESE,110,0.0,0.0,83,0.00,,SKC,0.00,VWS V14.01,2013-06-20 02:02:00,
2013-06-19 22:07:00,63.9,59.0,32.11,ESE,110,0.0,0.0,84,0.00,,SKC,0.00,VWS V14.01,2013-06-20 02:07:00,
2013-06-19 22:12:00,63.7,58.8,32.11,ESE,110,0.0,0.0,84,0.00,,SKC,0.00,VWS V14.01,2013-06-20 02:12:00,
2013-06-19 22:17:00,63.5,58.6,32.11,ESE,110,0.0,0.0,84,0.00,,SKC,0.00,VWS V14.01,2013-06-20 02:17:00,
2013-06-19 22:22:00,63.4,58.8,32.11,ESE,110,0.0,0.0,85,0.00,,SKC,0.00,VWS V14.01,2013-06-20 02:22:00,
2013-06-19 22:27:00,63.2,58.6,32.11,ESE,110,0.0,0.0,85,0.00,,SKC,0.00,VWS V14.01,2013-06-20 02:27:00,
2013-06-19 22:32:00,63.1,58.5,32.11,ESE,110,0.0,0.0,85,0.00,,SKC,0.00,VWS V14.01,2013-06-20 02:32:00,
2013-06-19 22:37:00,63.0,58.4,32.11,ESE,110,0.0,0.0,85,0.00,,SKC,0.00,VWS V14.01,2013-06-20 02:37:00,
2013-06-19 22:42:00,63.0,58.4,32.11,ESE,110,0.0,0.0,85,0.00,,SKC,0.00,VWS V14.01,2013-06-20 02:42:00,
2013-06-19 22:47:00,62.9,58.7,32.11,ESE,110,0.0,2.0,86,0.00,,SKC,0.00,VWS V14.01,2013-06-20 02:47:00,
2013-06-19 22:52:00,62.8,58.2,32.11,ESE,110,0.0,0.0,85,0.00,,SKC,0.00,VWS V14.01,2013-06-20 02:52:00,
2013-06-19 22:57:00,62.6,58.4,32.11,ESE,110,0.0,0.0,86,0.00,,SKC,0.00,VWS V14.01,2013-06-20 02:57:00,
2013-06-19 23:02:00,62.5,58.3,32.11,ESE,110,0.0,0.0,86,0.00,,SKC,0.00,VWS V14.01,2013-06-20 03:02:00,
2013-06-19 23:07:00,62.3,58.1,32.11,ESE,110,0.0,0.0,86,0.00,,SKC,0.00,VWS V14.01,2013-06-20 03:07:00,
2013-06-19 23:12:00,62.2,58.3,32.11,ESE,110,0.0,0.0,87,0.00,,SKC,0.00,VWS V14.01,2013-06-20 03:12:00,
2013-06-19 23:17:00,62.0,58.1,32.11,ESE,110,1.0,1.0,87,0.00,,SKC,0.00,VWS V14.01,2013-06-20 03:17:00,
2013-06-19 23:22:00,61.8,58.2,32.11,ESE,110,0.0,0.0,88,0.00,,SKC,0.00,VWS V14.01,2013-06-20 03:22:00,
2013-06-19 23:27:00,61.8,58.2,32.11,ESE,110,0.0,0.0,88,0.00,,SKC,0.00,VWS V14.01,2013-06-20 03:27:00,
2013-06-19 23:32:00,61.9,58.3,32.11,ESE,110,0.0,0.0,88,0.00,,SKC,0.00,VWS V14.01,2013-06-20 03:32:00,
2013-06-19 23:37:00,62.0,58.4,32.11,ESE,110,0.0,0.0,88,0.00,,SKC,0.00,VWS V14.01,2013-06-20 03:37:00,
2013-06-19 23:42:00,62.1,58.5,32.11,ESE,110,0.0,0.0,88,0.00,,SKC,0.00,VWS V14.01,2013-06-20 03:42:00,
2013-06-19 23:47:00,62.1,58.5,32.11,ESE,110,0.0,0.0,88,0.00,,SKC,0.00,VWS V14.01,2013-06-20 03:47:00,
2013-06-19 23:52:00,62.2,58.6,32.11,ESE,110,0.0,0.0,88,0.00,,SKC,0.00,VWS V14.01,2013-06-20 03:52:00,
2013-06-19 23:57:00,62.2,58.3,32.11,ESE,110,0.0,0.0,87,0.00,,SKC,0.00,VWS V14.01,2013-06-20 03:57:00,